createdAt,value
2018-11-07T00:04:22.188Z,99.90
2018-11-07T00:09:25.486Z,99.90
2018-11-07T00:14:28.151Z,99.90
2018-11-07T00:19:30.738Z,99.90
2018-11-07T00:24:33.292Z,99.90
2018-11-07T00:29:35.852Z,99.90
2018-11-07T00:34:38.420Z,99.90
2018-11-07T00:39:40.992Z,99.90
2018-11-07T00:44:43.601Z,99.90
2018-11-07T00:49:46.169Z,99.90
2018-11-07T00:54:48.740Z,99.90
2018-11-07T00:59:51.308Z,99.90
2018-11-07T01:04:53.877Z,99.90
2018-11-07T01:09:57.068Z,99.90
2018-11-07T01:15:00.699Z,99.90
2018-11-07T01:20:03.843Z,99.90
2018-11-07T01:25:07.080Z,99.90
2018-11-07T01:30:11.813Z,99.90
2018-11-07T01:35:14.382Z,99.90
2018-11-07T01:40:16.954Z,99.90
2018-11-07T01:45:19.553Z,99.90
2018-11-07T01:50:22.110Z,99.90
2018-11-07T01:55:24.703Z,99.90
2018-11-07T02:00:27.950Z,99.90
2018-11-07T02:05:30.589Z,99.90
2018-11-07T02:10:33.235Z,99.90
2018-11-07T02:15:35.796Z,99.90
2018-11-07T02:20:39.764Z,99.90
2018-11-07T02:25:42.368Z,99.90
2018-11-07T02:30:44.947Z,99.90
2018-11-07T02:35:49.141Z,99.90
2018-11-07T02:40:51.725Z,99.90
2018-11-07T02:45:54.281Z,99.90
2018-11-07T02:50:56.847Z,99.90
2018-11-07T02:55:59.416Z,99.90
2018-11-07T03:01:02.990Z,99.90
2018-11-07T03:06:05.577Z,99.90
2018-11-07T03:11:08.122Z,99.90
2018-11-07T03:16:10.685Z,99.90
2018-11-07T03:21:13.254Z,99.90
2018-11-07T03:26:15.845Z,99.90
2018-11-07T03:31:18.420Z,99.90
2018-11-07T03:41:23.458Z,99.90
2018-11-07T03:46:26.037Z,99.90
2018-11-07T03:51:31.241Z,99.90
2018-11-07T03:56:33.822Z,99.90
2018-11-07T04:01:36.404Z,99.90
2018-11-07T04:06:39.060Z,99.90
2018-11-07T04:11:42.507Z,99.90
2018-11-07T04:16:45.078Z,99.90
2018-11-07T04:21:47.720Z,99.90
2018-11-07T04:26:50.284Z,99.90
2018-11-07T04:31:52.868Z,99.90
2018-11-07T04:36:55.429Z,99.90
2018-11-07T04:41:58.705Z,99.90
2018-11-07T04:47:01.460Z,99.90
2018-11-07T04:52:04.031Z,99.90
2018-11-07T04:57:06.928Z,99.90
2018-11-07T05:02:09.528Z,99.90
2018-11-07T05:07:12.080Z,99.90
2018-11-07T05:12:14.640Z,99.90
2018-11-07T05:17:17.193Z,99.90
2018-11-07T05:22:20.227Z,99.90
2018-11-07T05:27:22.809Z,99.90
2018-11-07T05:32:26.184Z,99.90
2018-11-07T05:37:28.740Z,99.90
2018-11-07T05:42:31.300Z,99.90
2018-11-07T05:47:33.896Z,99.90
2018-11-07T05:52:36.760Z,99.90
2018-11-07T05:57:39.715Z,99.90
2018-11-07T06:02:42.288Z,99.90
2018-11-07T06:07:45.088Z,99.90
2018-11-07T06:12:47.658Z,99.90
2018-11-07T06:17:50.225Z,99.90
2018-11-07T06:22:52.818Z,99.90
2018-11-07T06:27:55.392Z,99.90
2018-11-07T06:32:57.964Z,99.90
2018-11-07T06:38:00.527Z,99.90
2018-11-07T06:43:03.143Z,99.90
2018-11-07T06:53:08.188Z,99.90
2018-11-07T06:58:10.792Z,99.90
2018-11-07T07:08:15.820Z,99.90
2018-11-07T07:13:18.409Z,99.90
2018-11-07T07:18:21.212Z,99.90
2018-11-07T07:23:23.782Z,99.90
2018-11-07T07:28:26.349Z,99.90
2018-11-07T07:33:28.987Z,99.90
2018-11-07T07:38:31.493Z,99.90
2018-11-07T07:43:34.072Z,99.90
2018-11-07T07:48:36.661Z,99.90
2018-11-07T07:53:39.217Z,99.90
2018-11-07T07:58:41.791Z,99.90
2018-11-07T08:03:44.344Z,99.90
2018-11-07T08:08:46.922Z,99.90
2018-11-07T08:13:49.545Z,99.90
2018-11-07T08:18:52.120Z,99.90
2018-11-07T08:23:54.869Z,99.90
2018-11-07T08:28:57.748Z,99.90
2018-11-07T08:34:01.298Z,99.90
2018-11-07T08:39:07.213Z,99.90
2018-11-07T08:44:09.770Z,99.90
2018-11-07T08:49:13.318Z,99.90
2018-11-07T08:54:16.453Z,99.90
2018-11-07T08:59:19.078Z,99.90
2018-11-07T09:04:22.288Z,98.90
2018-11-07T09:09:24.880Z,95.00
2018-11-07T09:14:27.468Z,80.90
2018-11-07T09:19:30.048Z,78.80
2018-11-07T09:24:32.615Z,86.40
2018-11-07T09:29:36.667Z,81.90
2018-11-07T09:34:40.160Z,75.00
2018-11-07T09:39:42.756Z,68.40
2018-11-07T09:44:45.385Z,60.20
2018-11-07T09:49:48.488Z,59.70
2018-11-07T09:54:51.750Z,57.00
2018-11-07T09:59:54.336Z,54.00
2018-11-07T10:04:56.995Z,56.40
2018-11-07T10:10:00.373Z,58.40
2018-11-07T10:15:03.081Z,58.00
2018-11-07T10:20:09.248Z,56.70
2018-11-07T10:25:12.153Z,59.50
2018-11-07T10:30:17.389Z,64.60
2018-11-07T10:35:19.824Z,60.60
2018-11-07T10:40:23.759Z,58.90
2018-11-07T10:45:26.389Z,55.50
2018-11-07T10:50:28.943Z,51.20
2018-11-07T10:55:31.508Z,53.10
2018-11-07T11:00:39.732Z,53.00
2018-11-07T11:05:42.300Z,53.80
2018-11-07T11:10:44.899Z,55.80
2018-11-07T11:15:47.448Z,54.80
2018-11-07T11:20:50.017Z,50.80
2018-11-07T11:25:53.130Z,51.00
2018-11-07T11:30:55.817Z,45.80
2018-11-07T11:35:58.430Z,46.10
2018-11-07T11:41:01.068Z,44.70
2018-11-07T11:46:03.681Z,41.80
2018-11-07T11:51:06.648Z,43.90
2018-11-07T11:56:09.268Z,43.80
2018-11-07T12:01:11.876Z,40.10
2018-11-07T12:06:14.479Z,40.10
2018-11-07T12:11:17.110Z,40.10
2018-11-07T12:16:19.693Z,40.80
2018-11-07T12:21:22.373Z,41.20
2018-11-07T12:26:24.942Z,42.40
2018-11-07T12:31:27.507Z,41.90
2018-11-07T12:36:30.247Z,44.30
2018-11-07T12:41:32.712Z,45.30
2018-11-07T12:46:35.306Z,47.30
2018-11-07T12:51:37.881Z,46.60
2018-11-07T12:56:40.452Z,43.80
2018-11-07T13:01:43.031Z,41.00
2018-11-07T13:06:45.615Z,38.70
2018-11-07T13:11:48.872Z,38.90
2018-11-07T13:16:51.472Z,40.80
2018-11-07T13:21:54.272Z,40.30
2018-11-07T13:26:56.846Z,38.00
2018-11-07T13:31:59.421Z,34.20
2018-11-07T13:37:02.216Z,32.90
2018-11-07T13:42:04.929Z,32.80
2018-11-07T13:47:07.524Z,30.90
2018-11-07T13:52:10.409Z,29.90
2018-11-07T13:57:13.004Z,30.30
2018-11-07T14:02:15.630Z,30.30
2018-11-07T14:07:18.225Z,29.10
2018-11-07T14:12:20.917Z,28.40
2018-11-07T14:17:23.677Z,29.40
2018-11-07T14:22:26.255Z,31.50
2018-11-07T14:27:28.911Z,33.30
2018-11-07T14:32:31.988Z,38.50
2018-11-07T14:37:35.550Z,41.60
2018-11-07T14:42:38.428Z,40.00
2018-11-07T14:47:41.728Z,38.70
2018-11-07T14:52:44.275Z,40.60
2018-11-07T14:57:46.889Z,45.10
2018-11-07T15:02:49.573Z,42.00
2018-11-07T15:07:52.082Z,42.40
2018-11-07T15:12:55.242Z,52.20
2018-11-07T15:17:58.013Z,58.70
2018-11-07T15:23:00.652Z,64.20
2018-11-07T15:28:03.310Z,78.50
2018-11-07T15:33:05.882Z,95.40
2018-11-07T15:38:08.489Z,99.90
2018-11-07T15:43:11.168Z,99.90
2018-11-07T15:48:16.922Z,99.90
2018-11-07T15:53:19.549Z,99.90
2018-11-07T15:58:22.245Z,99.90
2018-11-07T16:03:30.467Z,99.90
2018-11-07T16:08:33.189Z,99.90
2018-11-07T16:13:36.949Z,99.90
2018-11-07T16:18:39.574Z,99.90
2018-11-07T16:23:42.197Z,99.90
2018-11-07T16:28:44.900Z,99.90
2018-11-07T16:33:47.389Z,99.90
2018-11-07T16:38:50.009Z,99.90
2018-11-07T16:43:52.626Z,99.90
2018-11-07T16:48:55.393Z,99.90
2018-11-07T16:53:58.086Z,99.90
2018-11-07T16:59:00.692Z,99.90
2018-11-07T17:04:04.409Z,99.90
2018-11-07T17:09:07.868Z,99.90
2018-11-07T17:14:10.513Z,99.90
2018-11-07T17:19:14.042Z,99.90
2018-11-07T17:24:16.829Z,99.90
2018-11-07T17:29:19.330Z,99.90
2018-11-07T17:34:22.083Z,99.90
2018-11-07T17:39:24.700Z,99.90
2018-11-07T17:44:27.437Z,99.90
2018-11-07T17:49:30.090Z,99.90
2018-11-07T17:54:32.680Z,99.90
2018-11-07T17:59:35.296Z,99.90
2018-11-07T18:04:37.921Z,99.90
2018-11-07T18:09:40.575Z,99.90
2018-11-07T18:14:44.004Z,99.90
2018-11-07T18:19:46.620Z,99.90
2018-11-07T18:24:49.254Z,99.90
2018-11-07T18:29:51.921Z,99.90
2018-11-07T18:34:54.534Z,99.90
2018-11-07T18:39:57.168Z,99.90
2018-11-07T18:44:59.798Z,99.90
2018-11-07T18:50:02.636Z,99.90
2018-11-07T18:55:06.458Z,99.90
2018-11-07T19:00:11.004Z,99.90
2018-11-07T19:05:13.670Z,99.90
2018-11-07T19:10:17.770Z,99.90
2018-11-07T19:15:20.468Z,99.90
2018-11-07T19:20:23.146Z,99.90
2018-11-07T19:25:25.962Z,99.90
2018-11-07T19:30:28.557Z,99.90
2018-11-07T19:35:31.228Z,99.90
2018-11-07T19:40:33.852Z,99.90
2018-11-07T19:45:36.452Z,99.90
2018-11-07T19:50:39.042Z,99.90
2018-11-07T19:55:41.638Z,99.90
2018-11-07T20:00:44.322Z,99.90
2018-11-07T20:05:48.404Z,99.90
2018-11-07T20:10:51.062Z,99.90
2018-11-07T20:15:53.741Z,99.90
2018-11-07T20:30:29.179Z,99.90
2018-11-07T20:35:31.852Z,99.90
2018-11-07T20:40:34.506Z,99.90
2018-11-07T20:45:39.369Z,99.90
2018-11-07T20:50:41.968Z,99.90
2018-11-07T20:55:49.433Z,99.90
2018-11-07T21:00:52.086Z,99.90
2018-11-07T21:05:54.716Z,99.90
2018-11-07T21:10:57.342Z,99.90
2018-11-07T21:15:59.964Z,99.90
2018-11-07T21:21:02.622Z,99.90
2018-11-07T21:26:05.288Z,99.90
2018-11-07T21:31:07.940Z,99.90
2018-11-07T21:36:10.548Z,99.90
2018-11-07T21:41:13.133Z,99.90
2018-11-07T21:46:15.714Z,99.90
2018-11-07T21:51:19.047Z,99.90
2018-11-07T21:56:21.604Z,99.90
2018-11-07T22:01:24.217Z,99.90
2018-11-07T22:06:26.795Z,99.90
2018-11-07T22:11:29.988Z,99.90
2018-11-07T22:16:32.544Z,99.90
2018-11-07T22:21:35.440Z,99.90
2018-11-07T22:26:38.008Z,99.90
2018-11-07T22:31:40.720Z,99.90
2018-11-07T22:36:43.226Z,99.90
2018-11-07T22:41:45.772Z,99.90
2018-11-07T22:46:48.913Z,99.90
2018-11-07T22:51:51.456Z,99.90
2018-11-07T22:56:54.022Z,99.90
2018-11-07T23:01:56.598Z,99.90
2018-11-07T23:06:59.170Z,99.90
2018-11-07T23:12:02.426Z,99.90
2018-11-07T23:17:05.085Z,99.90
2018-11-07T23:22:07.719Z,99.90
2018-11-07T23:27:10.308Z,99.90
2018-11-07T23:32:12.883Z,99.90
2018-11-07T23:37:15.453Z,99.90
2018-11-07T23:42:18.092Z,99.90
2018-11-07T23:47:20.790Z,99.90
2018-11-07T23:52:28.987Z,99.90
2018-11-07T23:57:31.653Z,99.90
